Terminal Aerodrome Forecast
Issued by NWS Louisville, KY

Home | Current Version | Previous Version | Text Only | Print | Product List | Glossary On
Versions: 1 2 3 4 5 6 7 8 9 10 11 12 13 14 15 16 17 18 19 20 21 22
000
FTUS43 KLMK 301100
TAFLEX
TAF
KLEX 301123Z 3012/3112 19006KT P6SM SCT060 BKN080
     FM301500 20014G17KT P6SM VCSH SCT045 BKN100
     FM310100 19013KT 6SM -SHRA VCTS BKN040CB
     FM310700 21012KT P6SM VCSH BKN035=

USA.gov is the U.S. government's official web portal to all federal, state and local government web resources and services.